Latest Coastal Weather Observations for Neptune Island

IDT60701

Issued at 4:52 am EST Thursday 3 September 2026 (issued every 10 minutes, with the page automatically refreshed every 10 minutes)

About coastal observations | Map of coastal stations | Coastal observations for TAS | Marine services | Other Formats
Station Details ID: 018115 Name: NEPTUNE ISLAND Lat: -35.34 Lon: 136.12 Height: 32.0 m
Data from the previous 72 hours. | See also: Recent months at Neptune Island
Date/Time
EST
Wind Sea
Height
m
Swell Vis
km
Cloud Weather Temp
°C
Press
MSL
hPa
Rain since
9am
mm
Dir  Spd
kts
Gust
kts
Height
m
Period
s
Dir
03/04:30am W 27 31 - - - - - - - 15.0 1013.7 0.2
03/04:00am W 27 32 - - - - - - - 14.7 1013.6 0.2
03/03:30am W 27 34 - - - - - - - 14.7 1013.8 0.2
03/03:00am W 28 33 - - - - - - - 15.0 1013.9 0.2
03/02:30am W 25 31 - - - - - - - 14.8 1014.1 0.2
03/02:00am W 25 31 - - - - - - - 14.8 1014.0 0.2
03/01:30am W 24 31 - - - - - - - 15.0 1014.0 0.2
03/01:00am W 25 29 - - - - - - - 14.6 1013.9 0.2
03/12:30am W 25 31 - - - - - - - 14.7 1014.2 0.2
03/12:00am W 27 32 - - - - - - - 14.8 1014.5 0.2
 
Date/Time
EST
Wind Sea
Height
m
Swell Vis
km
Cloud Weather Temp
°C
Press
MSL
hPa
Rain since
9am
mm
Dir  Spd
kts
Gust
kts
Height
m
Period
s
Dir
02/11:30pm W 25 31 - - - - - - - 14.9 1014.7 0.2
02/11:00pm W 24 28 - - - - - - - 14.9 1015.0 0.2
02/10:30pm W 26 30 - - - - - - - 14.8 1014.9 0.2
02/10:00pm W 23 27 - - - - - - - 14.7 1015.0 0.2
02/09:30pm W 23 28 - - - - - - - 14.4 1014.8 0.2
02/09:05pm W 26 32 - - - - - - - 14.2 1014.7 0.2
02/09:00pm W 25 30 - - - - - - - 14.3 1014.7 0.2
02/08:54pm W 19 30 - - - - - - - 14.1 1014.6 0.2
02/08:30pm W 23 30 - - - - - - - 14.0 1014.7 0.2
02/08:00pm W 25 29 - - - - - - - 13.9 1014.5 0.2
02/07:30pm WNW 21 27 - - - - - - - 14.2 1014.4 0.2
02/07:00pm WNW 19 22 - - - - - - - 14.2 1014.1 0.2
02/06:30pm W 21 29 - - - - - - - 13.8 1014.0 0.2
02/06:21pm WNW 22 29 - - - - - - - 13.7 1014.0 0.2
02/06:07pm WNW 19 30 - - - - - - - 14.2 1013.7 0.2
02/06:00pm W 18 23 - - - - - - - 14.2 1013.9 0.2
02/05:30pm W 20 25 - - - - - - - 14.2 1013.7 0.2
02/05:00pm WNW 18 23 - - - - - - - 13.9 1013.8 0.2
02/04:30pm W 19 25 - - - - - - - 14.1 1013.9 0.2
02/04:00pm W 21 24 - - - - - - - 14.2 1013.9 0.2
02/03:30pm W 18 24 - - - - - - - 14.5 1014.3 0.2
02/03:00pm W 19 23 - - - - - - - 14.8 1014.5 0.2
02/02:30pm W 21 26 - - - - - - - 14.3 1014.6 0.2
02/02:00pm W 18 23 - - - - - - - 14.0 1014.9 0.2
02/01:47pm W 21 26 - - - - - - - 13.2 1015.3 0.2
02/01:46pm W 21 26 - - - - - - - 13.1 1015.3 0.2
02/01:36pm W 15 25 - - - - - - - 13.4 1015.4 0.2
02/01:30pm WNW 13 15 - - - - - - - 14.0 1015.5 0.0
02/01:00pm W 19 24 - - - - - - - 13.8 1015.5 0.0
02/12:30pm WNW 14 18 - - - - - - - 14.0 1015.9 0.0
02/12:00pm W 14 16 - - - - - - - 14.3 1016.2 0.0
02/11:30am W 15 20 - - - - - - - 13.8 1016.3 0.0
02/11:00am W 16 20 - - - - - - - 13.8 1016.7 0.0
02/10:30am W 14 17 - - - - - - - 13.9 1017.1 0.0
02/10:00am W 14 18 - - - - - - - 13.5 1017.2 0.0
02/09:30am W 12 17 - - - - - - - 13.4 1017.3 1.8
02/09:00am WNW 13 17 - - - - - - - 13.3 1017.0 1.8
02/08:30am W 13 18 - - - - - - - 13.2 1017.0 1.8
02/08:00am WSW 14 18 - - - - - - - 13.2 1016.8 1.8
02/07:30am W 14 19 - - - - - - - 13.2 1016.8 1.8
02/07:00am WSW 15 18 - - - - - - - 13.3 1016.7 1.8
02/06:30am W 12 18 - - - - - - - 12.9 1016.5 1.8
02/06:00am WSW 15 20 - - - - - - - 12.8 1016.6 1.8
02/05:30am WSW 15 22 - - - - - - - 12.8 1016.5 1.8
02/05:00am WSW 15 18 - - - - - - - 13.0 1016.5 1.8
02/04:30am WSW 15 19 - - - - - - - 13.1 1016.6 1.8
02/04:00am WSW 16 20 - - - - - - - 13.2 1016.4 1.8
02/03:30am SW 13 16 - - - - - - - 13.0 1016.7 1.8
02/03:00am SW 16 20 - - - - - - - 13.0 1017.0 1.8
02/02:30am WSW 13 17 - - - - - - - 13.3 1017.2 1.8
02/02:00am WSW 14 17 - - - - - - - 13.3 1017.2 1.8
02/01:30am WSW 17 22 - - - - - - - 13.1 1017.2 1.8
02/01:00am SW 15 20 - - - - - - - 13.4 1017.1 1.8
02/12:30am SW 16 18 - - - - - - - 13.4 1017.2 1.8
02/12:00am WSW 15 19 - - - - - - - 13.5 1017.3 1.8
 
Date/Time
EST
Wind Sea
Height
m
Swell Vis
km
Cloud Weather Temp
°C
Press
MSL
hPa
Rain since
9am
mm
Dir  Spd
kts
Gust
kts
Height
m
Period
s
Dir
01/11:30pm SW 17 20 - - - - - - - 14.0 1017.4 1.8
01/11:00pm WSW 16 19 - - - - - - - 14.0 1017.3 1.8
01/10:30pm SW 18 21 - - - - - - - 13.9 1017.2 1.8
01/10:00pm SW 14 16 - - - - - - - 14.1 1017.3 1.8
01/09:30pm SW 15 17 - - - - - - - 14.1 1017.2 1.8
01/09:00pm SW 17 19 - - - - - - - 14.1 1016.9 1.8
01/08:30pm SW 15 19 - - - - - - - 14.2 1016.7 1.8
01/08:00pm SSW 15 19 - - - - - - - 14.3 1016.2 1.8
01/07:30pm SSW 16 19 - - - - - - - 14.9 1015.8 1.8
01/07:00pm SSW 19 22 - - - - - - - 14.9 1015.4 1.8
01/06:30pm SSW 20 23 - - - - - - - 14.9 1014.9 1.8
01/06:00pm SW 21 26 - - - - - - - 15.4 1014.6 1.8
01/05:30pm SW 18 21 - - - - - - - 16.0 1014.3 1.8
01/05:00pm WSW 17 20 - - - - - - - 16.2 1013.9 1.8
01/04:30pm W 14 16 - - - - - - - 17.2 1013.5 1.8
01/04:00pm WNW 16 19 - - - - - - - 16.9 1013.0 1.8
01/03:30pm WNW 22 25 - - - - - - - 16.3 1012.6 1.8
01/03:00pm WNW 23 29 - - - - - - - 16.1 1012.5 1.8
01/02:30pm WNW 23 27 - - - - - - - 16.0 1012.6 1.8
01/02:00pm NW 26 32 - - - - - - - 16.1 1012.6 1.8
01/01:30pm NNW 29 37 - - - - - - - 15.4 1011.4 1.8
01/01:18pm NW 32 39 - - - - - - - 15.4 1012.8 1.6
01/01:08pm NW 27 38 - - - - - - - 15.6 1013.3 1.4
01/01:00pm NW 24 29 - - - - - - - 15.6 1013.1 1.4
01/12:30pm WNW 26 32 - - - - - - Rain 15.5 1013.9 1.0
01/12:00pm WNW 29 36 - - - - - - - 16.7 1014.0 0.0
01/11:30am NW 28 32 - - - - - - - 17.1 1013.8 0.0
01/11:27am WNW 28 33 - - - - - - - 17.2 1013.8 0.0
01/11:25am WNW 29 34 - - - - - - - 17.2 1013.8 0.0
01/11:15am NW 22 33 - - - - - - - 17.3 1013.9 0.0
01/11:00am NW 18 20 - - - - - - - 17.7 1014.2 0.0
01/10:30am NW 21 25 - - - - - - - 17.4 1014.5 0.0
01/10:00am NW 24 28 - - - - - - - 17.2 1014.4 0.0
01/09:30am NNW 20 25 - - - - - - - 17.5 1014.4 -
01/09:00am NNW 20 25 - - - - - - - 18.0 1014.3 -
01/08:30am N 19 24 - - - - - - - 17.5 1014.0 -
01/08:00am N 18 21 - - - - - - - 16.3 1014.1 -
01/07:30am N 20 23 - - - - - - - 16.1 1013.9 -
01/07:00am N 21 25 - - - - - - - 16.1 1013.9 -
01/06:30am N 20 23 - - - - - - - 16.0 1014.2 -
01/06:00am N 19 22 - - - - - - - 15.8 1014.3 -
01/05:30am N 21 24 - - - - - - - 15.7 1014.4 -
01/05:00am N 21 24 - - - - - - - 15.5 1014.8 -
01/04:30am N 23 28 - - - - - - - 15.5 1015.0 -
01/04:00am N 22 25 - - - - - - - 15.7 1015.6 -
01/03:30am N 22 25 - - - - - - - 15.9 1016.5 -
01/03:00am N 19 23 - - - - - - - 15.4 1017.2 -
01/02:30am N 20 23 - - - - - - - 15.4 1017.8 -
01/02:00am N 18 21 - - - - - - - 15.3 1018.3 -
01/01:30am N 15 17 - - - - - - - 15.1 1018.9 -
01/12:00am N 15 17 - - - - - - - 14.8 1020.2 -
 
Date/Time
EST
Wind Sea
Height
m
Swell Vis
km
Cloud Weather Temp
°C
Press
MSL
hPa
Rain since
9am
mm
Dir  Spd
kts
Gust
kts
Height
m
Period
s
Dir
31/11:30pm NNE 16 18 - - - - - - - 15.0 1020.5 0.0
31/11:00pm NNE 16 17 - - - - - - - 15.0 1021.2 0.0
31/10:30pm NNE 13 14 - - - - - - - 14.8 1021.9 0.0
31/10:00pm NNE 14 16 - - - - - - - 14.7 1022.1 0.0
31/09:30pm N 15 17 - - - - - - - 14.8 1022.5 0.0
31/09:00pm N 15 17 - - - - - - - 14.7 1022.7 0.0
31/08:30pm N 12 18 - - - - - - - 14.6 1022.7 0.0
31/08:00pm NNE 12 14 - - - - - - - 14.7 1023.1 0.0
31/07:30pm NNE 13 15 - - - - - - - 14.7 1023.1 0.0
31/07:00pm NNE 13 16 - - - - - - - 14.8 1023.2 0.0
31/06:30pm NNE 13 16 - - - - - - - 14.8 1023.3 0.0
31/06:00pm NNE 11 14 - - - - - - - 15.1 1023.4 0.0
31/05:30pm NE 10 13 - - - - - - - 15.4 1023.6 0.0
31/05:00pm NE 11 15 - - - - - - - 15.6 1023.9 0.0
31/04:30pm NE 10 14 - - - - - - - 15.9 1024.3 0.0
31/04:00pm NNE 13 16 - - - - - - - 16.0 1024.5 0.0
31/03:30pm NE 10 14 - - - - - - - 16.1 1024.8 0.0
31/03:00pm NNE 13 14 - - - - - - - 16.9 1025.3 0.0
31/02:30pm NNE 13 16 - - - - - - - 17.0 1025.6 0.0
31/02:00pm NNE 14 16 - - - - - - - 17.4 1025.9 0.0
31/01:30pm NNE 13 15 - - - - - - - 17.3 1026.7 0.0
31/01:00pm NNE 15 16 - - - - - - - 17.1 1027.1 0.0
31/12:30pm NNE 13 15 - - - - - - - 16.7 1027.6 0.0
31/12:00pm NNE 13 15 - - - - - - - 17.3 1028.2 0.0
31/11:30am NNE 14 16 - - - - - - - 17.3 1028.6 0.0
31/11:00am NNE 15 17 - - - - - - - 16.4 1029.0 0.0
31/10:30am NNE 14 16 - - - - - - - 16.4 1029.4 0.0
31/10:00am NNE 14 16 - - - - - - - 15.8 1029.5 0.0
31/09:30am NNE 14 16 - - - - - - - 15.3 1029.6 -
31/09:00am NNE 14 17 - - - - - - - 14.9 1029.3 -
31/08:30am NNE 14 16 - - - - - - - 14.5 1029.4 -
31/08:00am NE 12 15 - - - - - - - 14.1 1029.1 -
31/07:30am NE 14 17 - - - - - - - 13.7 1029.1 -
31/07:00am NE 13 16 - - - - - - - 13.6 1029.2 -
31/06:30am ENE 15 16 - - - - - - - 13.6 1029.1 -
31/06:00am ENE 16 19 - - - - - - - 13.5 1028.8 -
31/05:30am ENE 15 17 - - - - - - - 13.6 1028.9 -
31/05:00am ENE 14 16 - - - - - - - 13.5 1029.3 -

Other formats

Comma delimited format used in spreadsheet applications
http://www.bom.gov.au/fwo/IDT60701/IDT60701.94804.axf

JavaScript Object Notation format (JSON) in row-major order
http://www.bom.gov.au/fwo/IDT60701/IDT60701.94804.json

Data quality

Most of these data are generated automatically and are frequently updated. Quality checks on data are not normally performed. It is possible for incorrect values to appear. Refer to information at About Latest Weather Observations and please check the disclaimer before using these data.